sensor_id;sensor_type;location;lat;lon;timestamp;pressure;altitude;pressure_sealevel;temperature;humidity
21504;BME280;10913;51.992;9.228;2023-12-07T00:01:05;100521.88;;;3.41;100.00
21504;BME280;10913;51.992;9.228;2023-12-07T00:03:30;100529.75;;;3.42;100.00
21504;BME280;10913;51.992;9.228;2023-12-07T00:05:56;100527.97;;;3.41;100.00
21504;BME280;10913;51.992;9.228;2023-12-07T00:08:21;100528.06;;;3.44;100.00
21504;BME280;10913;51.992;9.228;2023-12-07T00:10:47;100532.31;;;3.41;100.00
21504;BME280;10913;51.992;9.228;2023-12-07T00:13:12;100528.06;;;3.44;100.00
21504;BME280;10913;51.992;9.228;2023-12-07T00:15:37;100529.75;;;3.42;100.00
21504;BME280;10913;51.992;9.228;2023-12-07T00:18:03;100536.75;;;3.43;100.00
21504;BME280;10913;51.992;9.228;2023-12-07T00:20:29;100538.50;;;3.44;100.00
21504;BME280;10913;51.992;9.228;2023-12-07T00:22:55;100544.63;;;3.45;100.00
21504;BME280;10913;51.992;9.228;2023-12-07T00:25:23;100535.84;;;3.43;100.00
21504;BME280;10913;51.992;9.228;2023-12-07T00:27:48;100542.84;;;3.44;100.00
21504;BME280;10913;51.992;9.228;2023-12-07T00:30:14;100549.84;;;3.45;100.00
21504;BME280;10913;51.992;9.228;2023-12-07T00:32:40;100543.69;;;3.43;100.00
21504;BME280;10913;51.992;9.228;2023-12-07T00:35:09;100544.63;;;3.45;100.00
21504;BME280;10913;51.992;9.228;2023-12-07T00:37:34;100548.16;;;3.47;100.00
21504;BME280;10913;51.992;9.228;2023-12-07T00:39:59;100539.47;;;3.48;100.00
21504;BME280;10913;51.992;9.228;2023-12-07T00:42:25;100543.81;;;3.47;100.00
21504;BME280;10913;51.992;9.228;2023-12-07T00:44:50;100551.69;;;3.49;100.00
21504;BME280;10913;51.992;9.228;2023-12-07T00:47:15;100553.38;;;3.47;100.00
21504;BME280;10913;51.992;9.228;2023-12-07T00:49:41;100557.69;;;3.45;100.00
21504;BME280;10913;51.992;9.228;2023-12-07T00:52:06;100562.06;;;3.46;100.00
21504;BME280;10913;51.992;9.228;2023-12-07T00:54:32;100570.72;;;3.45;100.00
21504;BME280;10913;51.992;9.228;2023-12-07T00:56:58;100571.63;;;3.45;100.00
21504;BME280;10913;51.992;9.228;2023-12-07T00:59:23;100564.66;;;3.46;100.00
21504;BME280;10913;51.992;9.228;2023-12-07T01:01:49;100576.00;;;3.46;100.00
21504;BME280;10913;51.992;9.228;2023-12-07T01:04:14;100575.97;;;3.45;100.00
21504;BME280;10913;51.992;9.228;2023-12-07T01:06:39;100570.72;;;3.45;100.00
21504;BME280;10913;51.992;9.228;2023-12-07T01:09:05;100572.53;;;3.47;100.00
21504;BME280;10913;51.992;9.228;2023-12-07T01:11:30;100584.69;;;3.45;100.00
21504;BME280;10913;51.992;9.228;2023-12-07T01:13:55;100589.94;;;3.47;100.00
21504;BME280;10913;51.992;9.228;2023-12-07T01:16:21;100586.41;;;3.45;100.00
21504;BME280;10913;51.992;9.228;2023-12-07T01:18:46;100582.09;;;3.47;100.00
21504;BME280;10913;51.992;9.228;2023-12-07T01:21:11;100585.66;;;3.49;100.00
21504;BME280;10913;51.992;9.228;2023-12-07T01:23:37;100595.22;;;3.49;100.00
21504;BME280;10913;51.992;9.228;2023-12-07T01:26:03;100596.09;;;3.49;100.00
21504;BME280;10913;51.992;9.228;2023-12-07T01:28:28;100587.47;;;3.52;100.00
21504;BME280;10913;51.992;9.228;2023-12-07T01:30:54;100600.47;;;3.50;100.00
21504;BME280;10913;51.992;9.228;2023-12-07T01:33:20;100596.13;;;3.51;100.00
21504;BME280;10913;51.992;9.228;2023-12-07T01:35:45;100599.63;;;3.51;100.00
21504;BME280;10913;51.992;9.228;2023-12-07T01:38:10;100595.25;;;3.50;100.00
21504;BME280;10913;51.992;9.228;2023-12-07T01:40:36;100596.97;;;3.50;100.00
21504;BME280;10913;51.992;9.228;2023-12-07T01:43:01;100599.59;;;3.50;100.00
21504;BME280;10913;51.992;9.228;2023-12-07T01:45:26;100598.72;;;3.49;100.00
21504;BME280;10913;51.992;9.228;2023-12-07T01:47:53;100599.53;;;3.48;100.00
21504;BME280;10913;51.992;9.228;2023-12-07T01:50:20;100603.09;;;3.50;100.00
21504;BME280;10913;51.992;9.228;2023-12-07T01:52:52;100604.81;;;3.50;100.00
21504;BME280;10913;51.992;9.228;2023-12-07T01:55:20;100609.16;;;3.49;100.00
21504;BME280;10913;51.992;9.228;2023-12-07T01:57:50;100608.34;;;3.52;100.00
21504;BME280;10913;51.992;9.228;2023-12-07T02:00:15;100616.19;;;3.52;100.00
21504;BME280;10913;51.992;9.228;2023-12-07T02:02:41;100611.84;;;3.52;100.00
21504;BME280;10913;51.992;9.228;2023-12-07T02:05:08;100608.41;;;3.53;100.00
21504;BME280;10913;51.992;9.228;2023-12-07T02:07:34;100611.00;;;3.53;100.00
21504;BME280;10913;51.992;9.228;2023-12-07T02:09:59;100614.47;;;3.52;100.00
21504;BME280;10913;51.992;9.228;2023-12-07T02:12:26;100617.97;;;3.53;100.00
21504;BME280;10913;51.992;9.228;2023-12-07T02:14:55;100613.63;;;3.53;100.00
21504;BME280;10913;51.992;9.228;2023-12-07T02:17:27;100612.69;;;3.51;100.00
21504;BME280;10913;51.992;9.228;2023-12-07T02:20:19;100620.56;;;3.53;100.00
21504;BME280;10913;51.992;9.228;2023-12-07T02:22:54;100614.47;;;3.52;100.00
21504;BME280;10913;51.992;9.228;2023-12-07T02:25:27;100617.91;;;3.51;100.00
21504;BME280;10913;51.992;9.228;2023-12-07T02:27:54;100622.25;;;3.51;100.00
21504;BME280;10913;51.992;9.228;2023-12-07T02:30:20;100623.13;;;3.51;100.00
21504;BME280;10913;51.992;9.228;2023-12-07T02:32:45;100617.97;;;3.53;100.00
21504;BME280;10913;51.992;9.228;2023-12-07T02:35:12;100624.91;;;3.52;100.00
21504;BME280;10913;51.992;9.228;2023-12-07T02:37:46;100622.34;;;3.54;100.00
21504;BME280;10913;51.992;9.228;2023-12-07T02:40:17;100624.91;;;3.52;100.00
21504;BME280;10913;51.992;9.228;2023-12-07T02:42:43;100624.91;;;3.52;100.00
21504;BME280;10913;51.992;9.228;2023-12-07T02:45:09;100626.69;;;3.53;100.00
21504;BME280;10913;51.992;9.228;2023-12-07T02:47:36;100628.38;;;3.51;100.00
21504;BME280;10913;51.992;9.228;2023-12-07T02:50:04;100629.25;;;3.52;100.00
21504;BME280;10913;51.992;9.228;2023-12-07T02:52:29;100628.38;;;3.51;100.00
21504;BME280;10913;51.992;9.228;2023-12-07T02:54:55;100632.66;;;3.49;100.00
21504;BME280;10913;51.992;9.228;2023-12-07T02:57:20;100637.03;;;3.50;100.00
21504;BME280;10913;51.992;9.228;2023-12-07T02:59:46;100645.72;;;3.49;100.00
21504;BME280;10913;51.992;9.228;2023-12-07T03:02:11;100642.22;;;3.49;100.00
21504;BME280;10913;51.992;9.228;2023-12-07T03:04:36;100640.50;;;3.49;100.00
21504;BME280;10913;51.992;9.228;2023-12-07T03:07:01;100645.72;;;3.49;100.00
21504;BME280;10913;51.992;9.228;2023-12-07T03:09:27;100646.56;;;3.48;100.00
21504;BME280;10913;51.992;9.228;2023-12-07T03:11:52;100647.44;;;3.49;100.00
21504;BME280;10913;51.992;9.228;2023-12-07T03:14:18;100658.72;;;3.47;100.00
21504;BME280;10913;51.992;9.228;2023-12-07T03:16:44;100651.75;;;3.46;100.00
21504;BME280;10913;51.992;9.228;2023-12-07T03:19:10;100654.41;;;3.48;100.00
21504;BME280;10913;51.992;9.228;2023-12-07T03:21:39;100657.00;;;3.48;100.00
21504;BME280;10913;51.992;9.228;2023-12-07T03:24:07;100656.06;;;3.46;100.00
21504;BME280;10913;51.992;9.228;2023-12-07T03:26:34;100657.84;;;3.47;100.00
21504;BME280;10913;51.992;9.228;2023-12-07T03:28:59;100663.94;;;3.47;100.00
21504;BME280;10913;51.992;9.228;2023-12-07T03:31:24;100661.31;;;3.46;100.00
21504;BME280;10913;51.992;9.228;2023-12-07T03:33:50;100657.84;;;3.47;100.00
21504;BME280;10913;51.992;9.228;2023-12-07T03:36:15;100652.63;;;3.47;100.00
21504;BME280;10913;51.992;9.228;2023-12-07T03:38:40;100658.69;;;3.46;100.00
21504;BME280;10913;51.992;9.228;2023-12-07T03:41:06;100664.75;;;3.45;100.00
21504;BME280;10913;51.992;9.228;2023-12-07T03:43:31;100663.88;;;3.44;100.00
21504;BME280;10913;51.992;9.228;2023-12-07T03:45:56;100667.38;;;3.45;100.00
21504;BME280;10913;51.992;9.228;2023-12-07T03:48:22;100663.06;;;3.47;100.00
21504;BME280;10913;51.992;9.228;2023-12-07T03:50:47;100663.91;;;3.46;100.00
21504;BME280;10913;51.992;9.228;2023-12-07T03:53:12;100661.31;;;3.46;100.00
21504;BME280;10913;51.992;9.228;2023-12-07T03:55:38;100669.97;;;3.45;100.00
21504;BME280;10913;51.992;9.228;2023-12-07T03:58:04;100677.81;;;3.45;100.00
21504;BME280;10913;51.992;9.228;2023-12-07T04:00:31;100673.44;;;3.44;100.00
21504;BME280;10913;51.992;9.228;2023-12-07T04:02:57;100672.53;;;3.43;100.00
21504;BME280;10913;51.992;9.228;2023-12-07T04:05:22;100669.94;;;3.43;100.00
21504;BME280;10913;51.992;9.228;2023-12-07T04:07:47;100673.44;;;3.44;100.00
21504;BME280;10913;51.992;9.228;2023-12-07T04:10:13;100676.88;;;3.43;100.00
21504;BME280;10913;51.992;9.228;2023-12-07T04:12:38;100676.88;;;3.43;100.00
21504;BME280;10913;51.992;9.228;2023-12-07T04:15:04;100677.72;;;3.42;100.00
21504;BME280;10913;51.992;9.228;2023-12-07T04:17:29;100682.09;;;3.43;100.00
21504;BME280;10913;51.992;9.228;2023-12-07T04:19:55;100682.06;;;3.41;100.00
21504;BME280;10913;51.992;9.228;2023-12-07T04:22:20;100678.56;;;3.41;100.00
21504;BME280;10913;51.992;9.228;2023-12-07T04:24:45;100675.94;;;3.41;100.00
21504;BME280;10913;51.992;9.228;2023-12-07T04:27:11;100682.91;;;3.40;100.00
21504;BME280;10913;51.992;9.228;2023-12-07T04:29:36;100684.59;;;3.38;100.00
21504;BME280;10913;51.992;9.228;2023-12-07T04:32:01;100679.34;;;3.37;100.00
21504;BME280;10913;51.992;9.228;2023-12-07T04:34:27;100680.19;;;3.36;100.00
21504;BME280;10913;51.992;9.228;2023-12-07T04:36:52;100687.97;;;3.34;100.00
21504;BME280;10913;51.992;9.228;2023-12-07T04:39:18;100681.75;;;3.31;100.00
21504;BME280;10913;51.992;9.228;2023-12-07T04:41:43;100678.31;;;3.32;100.00
21504;BME280;10913;51.992;9.228;2023-12-07T04:44:09;100682.59;;;3.30;100.00
21504;BME280;10913;51.992;9.228;2023-12-07T04:46:34;100682.59;;;3.30;100.00
21504;BME280;10913;51.992;9.228;2023-12-07T04:49:00;100680.00;;;3.30;100.00
21504;BME280;10913;51.992;9.228;2023-12-07T04:51:26;100680.78;;;3.27;100.00
21504;BME280;10913;51.992;9.228;2023-12-07T04:53:51;100679.06;;;3.28;100.00
21504;BME280;10913;51.992;9.228;2023-12-07T04:56:16;100674.59;;;3.24;100.00
21504;BME280;10913;51.992;9.228;2023-12-07T04:58:42;100679.84;;;3.25;100.00
21504;BME280;10913;51.992;9.228;2023-12-07T05:01:07;100682.47;;;3.25;100.00
21504;BME280;10913;51.992;9.228;2023-12-07T05:03:32;100677.25;;;3.25;100.00
21504;BME280;10913;51.992;9.228;2023-12-07T05:05:58;100680.69;;;3.24;100.00
21504;BME280;10913;51.992;9.228;2023-12-07T05:08:23;100681.53;;;3.23;100.00
21504;BME280;10913;51.992;9.228;2023-12-07T05:10:48;100681.50;;;3.22;100.00
21504;BME280;10913;51.992;9.228;2023-12-07T05:13:14;100681.50;;;3.22;100.00
21504;BME280;10913;51.992;9.228;2023-12-07T05:15:39;100674.50;;;3.21;100.00
21504;BME280;10913;51.992;9.228;2023-12-07T05:18:05;100670.16;;;3.20;100.00
21504;BME280;10913;51.992;9.228;2023-12-07T05:20:30;100677.97;;;3.20;100.00
21504;BME280;10913;51.992;9.228;2023-12-07T05:22:56;100677.97;;;3.20;100.00
21504;BME280;10913;51.992;9.228;2023-12-07T05:25:21;100680.59;;;3.20;100.00
21504;BME280;10913;51.992;9.228;2023-12-07T05:27:46;100690.97;;;3.18;100.00
21504;BME280;10913;51.992;9.228;2023-12-07T05:30:12;100686.66;;;3.19;100.00
21504;BME280;10913;51.992;9.228;2023-12-07T05:32:38;100683.09;;;3.17;100.00
21504;BME280;10913;51.992;9.228;2023-12-07T05:35:04;100693.53;;;3.17;100.00
21504;BME280;10913;51.992;9.228;2023-12-07T05:37:31;100694.38;;;3.16;100.00
21504;BME280;10913;51.992;9.228;2023-12-07T05:39:57;100693.50;;;3.15;100.00
21504;BME280;10913;51.992;9.228;2023-12-07T05:42:22;100698.72;;;3.15;100.00
21504;BME280;10913;51.992;9.228;2023-12-07T05:44:47;100703.88;;;3.14;100.00
21504;BME280;10913;51.992;9.228;2023-12-07T05:47:12;100695.22;;;3.15;100.00
21504;BME280;10913;51.992;9.228;2023-12-07T05:49:38;100704.78;;;3.14;100.00
21504;BME280;10913;51.992;9.228;2023-12-07T05:52:03;100709.13;;;3.14;100.00
21504;BME280;10913;51.992;9.228;2023-12-07T05:54:29;100712.56;;;3.13;100.00
21504;BME280;10913;51.992;9.228;2023-12-07T05:56:54;100704.72;;;3.13;100.00
21504;BME280;10913;51.992;9.228;2023-12-07T05:59:19;100708.13;;;3.10;100.00
21504;BME280;10913;51.992;9.228;2023-12-07T06:01:45;100709.84;;;3.09;100.00
21504;BME280;10913;51.992;9.228;2023-12-07T06:04:10;100706.31;;;3.07;100.00
21504;BME280;10913;51.992;9.228;2023-12-07T06:06:37;100704.53;;;3.06;100.00
21504;BME280;10913;51.992;9.228;2023-12-07T06:09:03;100707.16;;;3.06;100.00
21504;BME280;10913;51.992;9.228;2023-12-07T06:11:30;100710.59;;;3.05;100.00
21504;BME280;10913;51.992;9.228;2023-12-07T06:13:56;100697.50;;;3.04;100.00
21504;BME280;10913;51.992;9.228;2023-12-07T06:16:24;100703.59;;;3.04;100.00
21504;BME280;10913;51.992;9.228;2023-12-07T06:18:49;100707.94;;;3.04;100.00
21504;BME280;10913;51.992;9.228;2023-12-07T06:21:14;100702.66;;;3.02;100.00
21504;BME280;10913;51.992;9.228;2023-12-07T06:23:40;100717.50;;;3.03;100.00
21504;BME280;10913;51.992;9.228;2023-12-07T06:26:07;100716.59;;;3.03;100.00
21504;BME280;10913;51.992;9.228;2023-12-07T06:28:32;100722.72;;;3.03;100.00
21504;BME280;10913;51.992;9.228;2023-12-07T06:30:58;100715.72;;;3.02;100.00
21504;BME280;10913;51.992;9.228;2023-12-07T06:33:24;100721.78;;;3.01;100.00
21504;BME280;10913;51.992;9.228;2023-12-07T06:35:49;100725.22;;;2.99;100.00
21504;BME280;10913;51.992;9.228;2023-12-07T06:38:14;100721.72;;;2.98;100.00
21504;BME280;10913;51.992;9.228;2023-12-07T06:40:40;100724.31;;;2.98;100.00
21504;BME280;10913;51.992;9.228;2023-12-07T06:43:05;100732.16;;;2.98;100.00
21504;BME280;10913;51.992;9.228;2023-12-07T06:45:30;100731.25;;;2.98;100.00
21504;BME280;10913;51.992;9.228;2023-12-07T06:47:56;100719.88;;;2.96;100.00
21504;BME280;10913;51.992;9.228;2023-12-07T06:50:21;100731.22;;;2.96;100.00
21504;BME280;10913;51.992;9.228;2023-12-07T06:52:47;100728.56;;;2.95;100.00
21504;BME280;10913;51.992;9.228;2023-12-07T06:55:12;100725.06;;;2.94;100.00
21504;BME280;10913;51.992;9.228;2023-12-07T06:57:39;100724.13;;;2.92;100.00
21504;BME280;10913;51.992;9.228;2023-12-07T07:00:05;100732.78;;;2.91;100.00
21504;BME280;10913;51.992;9.228;2023-12-07T07:02:36;100723.19;;;2.90;100.00
21504;BME280;10913;51.992;9.228;2023-12-07T07:05:01;100732.78;;;2.91;100.00
21504;BME280;10913;51.992;9.228;2023-12-07T07:07:27;100736.22;;;2.90;100.00
21504;BME280;10913;51.992;9.228;2023-12-07T07:09:54;100741.44;;;2.90;100.00
21504;BME280;10913;51.992;9.228;2023-12-07T07:12:20;100740.56;;;2.90;100.00
21504;BME280;10913;51.992;9.228;2023-12-07T07:14:47;100745.78;;;2.90;100.00
21504;BME280;10913;51.992;9.228;2023-12-07T07:17:12;100743.16;;;2.90;100.00
21504;BME280;10913;51.992;9.228;2023-12-07T07:19:37;100748.34;;;2.88;100.00
21504;BME280;10913;51.992;9.228;2023-12-07T07:22:03;100748.34;;;2.88;100.00
21504;BME280;10913;51.992;9.228;2023-12-07T07:24:28;100747.41;;;2.86;100.00
21504;BME280;10913;51.992;9.228;2023-12-07T07:26:53;100744.78;;;2.86;100.00
21504;BME280;10913;51.992;9.228;2023-12-07T07:29:19;100752.56;;;2.85;100.00
21504;BME280;10913;51.992;9.228;2023-12-07T07:31:44;100744.69;;;2.83;100.00
21504;BME280;10913;51.992;9.228;2023-12-07T07:34:10;100744.66;;;2.82;100.00
21504;BME280;10913;51.992;9.228;2023-12-07T07:36:35;100751.59;;;2.81;100.00
21504;BME280;10913;51.992;9.228;2023-12-07T07:39:00;100758.56;;;2.82;100.00
21504;BME280;10913;51.992;9.228;2023-12-07T07:41:26;100765.56;;;2.83;100.00
21504;BME280;10913;51.992;9.228;2023-12-07T07:43:51;100769.06;;;2.84;100.00
21504;BME280;10913;51.992;9.228;2023-12-07T07:46:17;100762.13;;;2.84;100.00
21504;BME280;10913;51.992;9.228;2023-12-07T07:48:42;100767.34;;;2.84;100.00
21504;BME280;10913;51.992;9.228;2023-12-07T07:51:07;100762.13;;;2.84;100.00
21504;BME280;10913;51.992;9.228;2023-12-07T07:53:32;100768.19;;;2.83;100.00
21504;BME280;10913;51.992;9.228;2023-12-07T07:55:58;100763.84;;;2.84;100.00
21504;BME280;10913;51.992;9.228;2023-12-07T07:58:23;100768.22;;;2.85;100.00
21504;BME280;10913;51.992;9.228;2023-12-07T08:00:49;100770.00;;;2.86;100.00
21504;BME280;10913;51.992;9.228;2023-12-07T08:03:15;100761.34;;;2.87;100.00
21504;BME280;10913;51.992;9.228;2023-12-07T08:05:40;100771.81;;;2.88;100.00
21504;BME280;10913;51.992;9.228;2023-12-07T08:08:05;100773.66;;;2.91;100.00
21504;BME280;10913;51.992;9.228;2023-12-07T08:10:32;100768.38;;;2.89;100.00
21504;BME280;10913;51.992;9.228;2023-12-07T08:12:57;100772.75;;;2.90;100.00
21504;BME280;10913;51.992;9.228;2023-12-07T08:15:22;100774.53;;;2.91;100.00
21504;BME280;10913;51.992;9.228;2023-12-07T08:17:48;100770.16;;;2.90;100.00
21504;BME280;10913;51.992;9.228;2023-12-07T08:20:13;100767.53;;;2.90;100.00
21504;BME280;10913;51.992;9.228;2023-12-07T08:22:40;100771.03;;;2.91;100.00
21504;BME280;10913;51.992;9.228;2023-12-07T08:25:06;100766.72;;;2.91;100.00
21504;BME280;10913;51.992;9.228;2023-12-07T08:27:35;100771.97;;;2.93;100.00
21504;BME280;10913;51.992;9.228;2023-12-07T08:30:01;100766.75;;;2.93;100.00
21504;BME280;10913;51.992;9.228;2023-12-07T08:32:27;100772.06;;;2.96;100.00
21504;BME280;10913;51.992;9.228;2023-12-07T08:34:53;100768.63;;;2.97;100.00
21504;BME280;10913;51.992;9.228;2023-12-07T08:37:18;100774.81;;;3.00;100.00
21504;BME280;10913;51.992;9.228;2023-12-07T08:39:44;100776.69;;;3.04;100.00
21504;BME280;10913;51.992;9.228;2023-12-07T08:42:10;100777.63;;;3.06;100.00
21504;BME280;10913;51.992;9.228;2023-12-07T08:44:35;100769.78;;;3.06;100.00
21504;BME280;10913;51.992;9.228;2023-12-07T08:47:01;100768.13;;;3.08;100.00
21504;BME280;10913;51.992;9.228;2023-12-07T08:49:27;100764.63;;;3.08;100.00
21504;BME280;10913;51.992;9.228;2023-12-07T08:51:52;100769.88;;;3.09;100.00
21504;BME280;10913;51.992;9.228;2023-12-07T08:54:18;100775.22;;;3.13;100.00
21504;BME280;10913;51.992;9.228;2023-12-07T08:56:47;100777.91;;;3.16;100.00
21504;BME280;10913;51.992;9.228;2023-12-07T08:59:12;100776.31;;;3.21;100.00
21504;BME280;10913;51.992;9.228;2023-12-07T09:01:37;100777.25;;;3.23;100.00
21504;BME280;10913;51.992;9.228;2023-12-07T09:04:03;100779.13;;;3.27;100.00
21504;BME280;10913;51.992;9.228;2023-12-07T09:06:29;100790.53;;;3.30;100.00
21504;BME280;10913;51.992;9.228;2023-12-07T09:08:54;100781.13;;;3.35;100.00
21504;BME280;10913;51.992;9.228;2023-12-07T09:11:20;100789.84;;;3.36;100.00
21504;BME280;10913;51.992;9.228;2023-12-07T09:13:46;100793.41;;;3.38;100.00
21504;BME280;10913;51.992;9.228;2023-12-07T09:16:11;100789.94;;;3.39;100.00
21504;BME280;10913;51.992;9.228;2023-12-07T09:18:37;100796.91;;;3.40;100.00
21504;BME280;10913;51.992;9.228;2023-12-07T09:21:02;100796.13;;;3.42;100.00
21504;BME280;10913;51.992;9.228;2023-12-07T09:23:28;100791.00;;;3.45;100.00
21504;BME280;10913;51.992;9.228;2023-12-07T09:25:54;100797.19;;;3.49;100.00
21504;BME280;10913;51.992;9.228;2023-12-07T09:28:19;100788.53;;;3.50;100.00
21504;BME280;10913;51.992;9.228;2023-12-07T09:30:45;100787.78;;;3.54;100.00
21504;BME280;10913;51.992;9.228;2023-12-07T09:33:10;100788.81;;;3.59;100.00
21504;BME280;10913;51.992;9.228;2023-12-07T09:35:35;100782.75;;;3.62;100.00
21504;BME280;10913;51.992;9.228;2023-12-07T09:38:01;100785.50;;;3.66;100.00
21504;BME280;10913;51.992;9.228;2023-12-07T09:40:26;100793.34;;;3.66;100.00
21504;BME280;10913;51.992;9.228;2023-12-07T09:42:53;100789.06;;;3.68;100.00
21504;BME280;10913;51.992;9.228;2023-12-07T09:45:19;100782.19;;;3.72;100.00
21504;BME280;10913;51.992;9.228;2023-12-07T09:47:50;100782.34;;;3.76;100.00
21504;BME280;10913;51.992;9.228;2023-12-07T09:50:20;100791.09;;;3.78;100.00
21504;BME280;10913;51.992;9.228;2023-12-07T09:52:50;100791.16;;;3.81;100.00
21504;BME280;10913;51.992;9.228;2023-12-07T09:55:17;100789.44;;;3.82;100.00
21504;BME280;10913;51.992;9.228;2023-12-07T09:57:43;100785.09;;;3.83;100.00
21504;BME280;10913;51.992;9.228;2023-12-07T10:00:11;100796.47;;;3.85;100.00
21504;BME280;10913;51.992;9.228;2023-12-07T10:02:39;100789.56;;;3.87;100.00
21504;BME280;10913;51.992;9.228;2023-12-07T10:05:07;100791.31;;;3.86;100.00
21504;BME280;10913;51.992;9.228;2023-12-07T10:07:34;100794.84;;;3.88;100.00
21504;BME280;10913;51.992;9.228;2023-12-07T10:10:00;100794.88;;;3.90;100.00
21504;BME280;10913;51.992;9.228;2023-12-07T10:12:26;100796.72;;;3.92;100.00
21504;BME280;10913;51.992;9.228;2023-12-07T10:14:51;100797.56;;;3.91;100.00
21504;BME280;10913;51.992;9.228;2023-12-07T10:17:17;100793.31;;;3.95;100.00
21504;BME280;10913;51.992;9.228;2023-12-07T10:19:42;100786.41;;;3.97;100.00
21504;BME280;10913;51.992;9.228;2023-12-07T10:22:13;100788.22;;;4.01;100.00
21504;BME280;10913;51.992;9.228;2023-12-07T10:24:39;100790.09;;;4.05;100.00
21504;BME280;10913;51.992;9.228;2023-12-07T10:27:05;100789.38;;;4.10;100.00
21504;BME280;10913;51.992;9.228;2023-12-07T10:29:35;100788.56;;;4.13;100.00
21504;BME280;10913;51.992;9.228;2023-12-07T10:32:04;100787.81;;;4.17;100.00
21504;BME280;10913;51.992;9.228;2023-12-07T10:34:30;100786.13;;;4.19;100.00
21504;BME280;10913;51.992;9.228;2023-12-07T10:36:56;100781.78;;;4.21;100.00
21504;BME280;10913;51.992;9.228;2023-12-07T10:39:24;100777.50;;;4.23;100.00
21504;BME280;10913;51.992;9.228;2023-12-07T10:41:52;100773.09;;;4.22;100.00
21504;BME280;10913;51.992;9.228;2023-12-07T10:44:19;100767.00;;;4.22;100.00
21504;BME280;10913;51.992;9.228;2023-12-07T10:46:48;100760.97;;;4.24;100.00
21504;BME280;10913;51.992;9.228;2023-12-07T10:49:17;100757.50;;;4.25;100.00
21504;BME280;10913;51.992;9.228;2023-12-07T10:51:58;100754.06;;;4.26;100.00
21504;BME280;10913;51.992;9.228;2023-12-07T10:54:30;100754.19;;;4.31;100.00
21504;BME280;10913;51.992;9.228;2023-12-07T10:56:59;100741.97;;;4.31;100.00
21504;BME280;10913;51.992;9.228;2023-12-07T10:59:29;100734.22;;;4.34;100.00
21504;BME280;10913;51.992;9.228;2023-12-07T11:01:56;100731.69;;;4.37;100.00
21504;BME280;10913;51.992;9.228;2023-12-07T11:04:22;100726.50;;;4.40;100.00
21504;BME280;10913;51.992;9.228;2023-12-07T11:06:50;100725.66;;;4.41;100.00
21504;BME280;10913;51.992;9.228;2023-12-07T11:09:22;100723.13;;;4.44;100.00
21504;BME280;10913;51.992;9.228;2023-12-07T11:11:59;100720.59;;;4.47;100.00
21504;BME280;10913;51.992;9.228;2023-12-07T11:14:26;100725.91;;;4.50;100.00
21504;BME280;10913;51.992;9.228;2023-12-07T11:16:52;100721.66;;;4.56;100.00
21504;BME280;10913;51.992;9.228;2023-12-07T11:22:06;100721.06;;;4.67;100.00
21504;BME280;10913;51.992;9.228;2023-12-07T11:24:34;100719.44;;;4.72;100.00
21504;BME280;10913;51.992;9.228;2023-12-07T11:27:01;100705.53;;;4.73;100.00
21504;BME280;10913;51.992;9.228;2023-12-07T11:29:31;100706.53;;;4.78;100.00
21504;BME280;10913;51.992;9.228;2023-12-07T11:32:04;100704.84;;;4.82;100.00
21504;BME280;10913;51.992;9.228;2023-12-07T11:34:40;100704.06;;;4.86;100.00
21504;BME280;10913;51.992;9.228;2023-12-07T11:37:07;100695.44;;;4.90;100.00
21504;BME280;10913;51.992;9.228;2023-12-07T11:39:40;100699.03;;;4.95;100.00
21504;BME280;10913;51.992;9.228;2023-12-07T11:42:12;100697.31;;;4.96;100.00
21504;BME280;10913;51.992;9.228;2023-12-07T11:44:40;100694.78;;;5.00;100.00
21504;BME280;10913;51.992;9.228;2023-12-07T11:47:07;100701.84;;;5.04;100.00
21504;BME280;10913;51.992;9.228;2023-12-07T11:49:33;100702.00;;;5.10;100.00
21504;BME280;10913;51.992;9.228;2023-12-07T11:51:59;100692.56;;;5.18;100.00
21504;BME280;10913;51.992;9.228;2023-12-07T11:54:25;100689.50;;;5.38;100.00
21504;BME280;10913;51.992;9.228;2023-12-07T11:56:55;100683.91;;;5.66;100.00
21504;BME280;10913;51.992;9.228;2023-12-07T11:59:21;100680.09;;;5.93;100.00
21504;BME280;10913;51.992;9.228;2023-12-07T12:01:48;100674.38;;;6.15;100.00
21504;BME280;10913;51.992;9.228;2023-12-07T12:04:14;100666.81;;;6.33;99.27
21504;BME280;10913;51.992;9.228;2023-12-07T12:06:40;100661.78;;;6.48;98.15
21504;BME280;10913;51.992;9.228;2023-12-07T12:09:05;100660.31;;;6.67;98.33
21504;BME280;10913;51.992;9.228;2023-12-07T12:11:31;100651.81;;;6.85;97.74
21504;BME280;10913;51.992;9.228;2023-12-07T12:13:56;100657.38;;;7.06;97.06
21504;BME280;10913;51.992;9.228;2023-12-07T12:16:22;100658.38;;;7.14;95.27
21504;BME280;10913;51.992;9.228;2023-12-07T12:18:48;100641.81;;;7.23;92.57
21504;BME280;10913;51.992;9.228;2023-12-07T12:21:14;100639.16;;;7.21;92.67
21504;BME280;10913;51.992;9.228;2023-12-07T12:23:39;100635.63;;;7.19;92.78
21504;BME280;10913;51.992;9.228;2023-12-07T12:26:06;100640.13;;;7.26;92.75
21504;BME280;10913;51.992;9.228;2023-12-07T12:28:33;100647.16;;;7.29;92.02
21504;BME280;10913;51.992;9.228;2023-12-07T12:31:01;100638.50;;;7.41;92.39
21504;BME280;10913;51.992;9.228;2023-12-07T12:33:26;100644.75;;;7.49;91.93
21504;BME280;10913;51.992;9.228;2023-12-07T12:36:05;100629.06;;;7.55;90.93
21504;BME280;10913;51.992;9.228;2023-12-07T12:38:32;100634.31;;;7.55;90.26
21504;BME280;10913;51.992;9.228;2023-12-07T12:40:57;100618.53;;;7.55;89.46
21504;BME280;10913;51.992;9.228;2023-12-07T12:43:23;100615.03;;;7.53;89.13
21504;BME280;10913;51.992;9.228;2023-12-07T12:45:49;100621.88;;;7.39;87.70
21504;BME280;10913;51.992;9.228;2023-12-07T12:48:15;100622.50;;;7.19;88.06